sensor_id;sensor_type;location;lat;lon;timestamp;P1;durP1;ratioP1;P2;durP2;ratioP2
56830;SDS011;42713;42.676;23.352;2023-11-18T00:01:53;1.58;;;0.90;;
56830;SDS011;42713;42.676;23.352;2023-11-18T00:04:19;2.15;;;0.80;;
56830;SDS011;42713;42.676;23.352;2023-11-18T00:06:45;1.90;;;0.90;;
56830;SDS011;42713;42.676;23.352;2023-11-18T00:09:13;1.38;;;0.80;;
56830;SDS011;42713;42.676;23.352;2023-11-18T00:11:42;2.35;;;1.00;;
56830;SDS011;42713;42.676;23.352;2023-11-18T00:14:08;2.50;;;0.90;;
56830;SDS011;42713;42.676;23.352;2023-11-18T00:16:36;3.22;;;1.08;;
56830;SDS011;42713;42.676;23.352;2023-11-18T00:19:02;1.92;;;0.98;;
56830;SDS011;42713;42.676;23.352;2023-11-18T00:21:30;2.75;;;1.08;;
56830;SDS011;42713;42.676;23.352;2023-11-18T00:23:55;2.42;;;1.00;;
56830;SDS011;42713;42.676;23.352;2023-11-18T00:26:21;1.67;;;0.80;;
56830;SDS011;42713;42.676;23.352;2023-11-18T00:28:46;1.58;;;0.80;;
56830;SDS011;42713;42.676;23.352;2023-11-18T00:31:13;1.35;;;0.88;;
56830;SDS011;42713;42.676;23.352;2023-11-18T00:33:39;1.13;;;0.77;;
56830;SDS011;42713;42.676;23.352;2023-11-18T00:36:05;2.28;;;0.88;;
56830;SDS011;42713;42.676;23.352;2023-11-18T00:38:31;1.33;;;0.80;;
56830;SDS011;42713;42.676;23.352;2023-11-18T00:40:57;1.70;;;1.00;;
56830;SDS011;42713;42.676;23.352;2023-11-18T00:43:23;2.15;;;1.10;;
56830;SDS011;42713;42.676;23.352;2023-11-18T00:45:48;1.63;;;0.85;;
56830;SDS011;42713;42.676;23.352;2023-11-18T00:48:13;1.80;;;0.90;;
56830;SDS011;42713;42.676;23.352;2023-11-18T00:50:40;1.73;;;0.90;;
56830;SDS011;42713;42.676;23.352;2023-11-18T00:53:05;1.17;;;0.95;;
56830;SDS011;42713;42.676;23.352;2023-11-18T00:55:32;1.10;;;0.80;;
56830;SDS011;42713;42.676;23.352;2023-11-18T00:57:58;1.45;;;1.00;;
56830;SDS011;42713;42.676;23.352;2023-11-18T01:00:23;3.33;;;1.10;;
56830;SDS011;42713;42.676;23.352;2023-11-18T01:02:52;2.03;;;1.10;;
56830;SDS011;42713;42.676;23.352;2023-11-18T01:05:20;1.55;;;1.00;;
56830;SDS011;42713;42.676;23.352;2023-11-18T01:07:46;2.58;;;1.00;;
56830;SDS011;42713;42.676;23.352;2023-11-18T01:10:12;2.10;;;1.08;;
56830;SDS011;42713;42.676;23.352;2023-11-18T01:12:38;1.98;;;1.00;;
56830;SDS011;42713;42.676;23.352;2023-11-18T01:15:04;2.45;;;1.10;;
56830;SDS011;42713;42.676;23.352;2023-11-18T01:17:30;4.93;;;1.20;;
56830;SDS011;42713;42.676;23.352;2023-11-18T01:19:56;1.67;;;0.93;;
56830;SDS011;42713;42.676;23.352;2023-11-18T01:22:22;2.90;;;1.10;;
56830;SDS011;42713;42.676;23.352;2023-11-18T01:24:47;1.92;;;1.15;;
56830;SDS011;42713;42.676;23.352;2023-11-18T01:27:13;2.58;;;1.38;;
56830;SDS011;42713;42.676;23.352;2023-11-18T01:29:38;2.47;;;1.10;;
56830;SDS011;42713;42.676;23.352;2023-11-18T01:32:07;2.70;;;1.40;;
56830;SDS011;42713;42.676;23.352;2023-11-18T01:34:36;2.85;;;1.27;;
56830;SDS011;42713;42.676;23.352;2023-11-18T01:37:05;2.95;;;1.42;;
56830;SDS011;42713;42.676;23.352;2023-11-18T01:39:34;2.85;;;1.40;;
56830;SDS011;42713;42.676;23.352;2023-11-18T01:42:01;2.67;;;1.30;;
56830;SDS011;42713;42.676;23.352;2023-11-18T01:44:30;3.45;;;1.60;;
56830;SDS011;42713;42.676;23.352;2023-11-18T01:46:56;2.67;;;1.33;;
56830;SDS011;42713;42.676;23.352;2023-11-18T01:49:23;1.80;;;1.15;;
56830;SDS011;42713;42.676;23.352;2023-11-18T01:51:49;2.53;;;1.33;;
56830;SDS011;42713;42.676;23.352;2023-11-18T01:54:19;3.03;;;1.33;;
56830;SDS011;42713;42.676;23.352;2023-11-18T01:56:48;2.67;;;1.40;;
56830;SDS011;42713;42.676;23.352;2023-11-18T01:59:14;2.33;;;1.17;;
56830;SDS011;42713;42.676;23.352;2023-11-18T02:01:46;2.72;;;1.35;;
56830;SDS011;42713;42.676;23.352;2023-11-18T02:04:14;2.65;;;1.30;;
56830;SDS011;42713;42.676;23.352;2023-11-18T02:06:40;4.20;;;1.35;;
56830;SDS011;42713;42.676;23.352;2023-11-18T02:09:06;2.90;;;1.20;;
56830;SDS011;42713;42.676;23.352;2023-11-18T02:11:36;2.40;;;1.20;;
56830;SDS011;42713;42.676;23.352;2023-11-18T02:14:06;2.80;;;1.33;;
56830;SDS011;42713;42.676;23.352;2023-11-18T02:16:38;3.55;;;1.35;;
56830;SDS011;42713;42.676;23.352;2023-11-18T02:19:09;2.80;;;1.30;;
56830;SDS011;42713;42.676;23.352;2023-11-18T02:21:49;3.45;;;1.60;;
56830;SDS011;42713;42.676;23.352;2023-11-18T02:27:02;3.03;;;1.42;;
56830;SDS011;42713;42.676;23.352;2023-11-18T02:29:34;3.17;;;1.63;;
56830;SDS011;42713;42.676;23.352;2023-11-18T02:34:40;3.85;;;1.60;;
56830;SDS011;42713;42.676;23.352;2023-11-18T02:37:16;2.83;;;1.52;;
56830;SDS011;42713;42.676;23.352;2023-11-18T02:39:43;4.80;;;1.83;;
56830;SDS011;42713;42.676;23.352;2023-11-18T02:42:11;3.47;;;1.73;;
56830;SDS011;42713;42.676;23.352;2023-11-18T02:44:38;2.83;;;1.52;;
56830;SDS011;42713;42.676;23.352;2023-11-18T02:47:04;4.95;;;1.83;;
56830;SDS011;42713;42.676;23.352;2023-11-18T02:49:30;3.75;;;1.60;;
56830;SDS011;42713;42.676;23.352;2023-11-18T02:51:57;2.63;;;1.50;;
56830;SDS011;42713;42.676;23.352;2023-11-18T02:54:22;3.78;;;1.70;;
56830;SDS011;42713;42.676;23.352;2023-11-18T02:56:48;5.35;;;1.88;;
56830;SDS011;42713;42.676;23.352;2023-11-18T02:59:15;4.28;;;1.88;;
56830;SDS011;42713;42.676;23.352;2023-11-18T03:01:41;4.20;;;2.10;;
56830;SDS011;42713;42.676;23.352;2023-11-18T03:04:06;5.18;;;2.08;;
56830;SDS011;42713;42.676;23.352;2023-11-18T03:06:33;4.90;;;2.20;;
56830;SDS011;42713;42.676;23.352;2023-11-18T03:09:00;4.28;;;2.00;;
56830;SDS011;42713;42.676;23.352;2023-11-18T03:11:26;4.80;;;2.20;;
56830;SDS011;42713;42.676;23.352;2023-11-18T03:13:55;4.78;;;2.35;;
56830;SDS011;42713;42.676;23.352;2023-11-18T03:16:22;5.35;;;2.55;;
56830;SDS011;42713;42.676;23.352;2023-11-18T03:18:49;5.70;;;2.38;;
56830;SDS011;42713;42.676;23.352;2023-11-18T03:21:15;5.03;;;2.10;;
56830;SDS011;42713;42.676;23.352;2023-11-18T03:23:40;4.13;;;1.90;;
56830;SDS011;42713;42.676;23.352;2023-11-18T03:26:07;5.38;;;2.00;;
56830;SDS011;42713;42.676;23.352;2023-11-18T03:28:33;6.28;;;2.70;;
56830;SDS011;42713;42.676;23.352;2023-11-18T03:30:59;5.32;;;2.30;;
56830;SDS011;42713;42.676;23.352;2023-11-18T03:33:24;4.80;;;2.13;;
56830;SDS011;42713;42.676;23.352;2023-11-18T03:35:50;8.65;;;2.15;;
56830;SDS011;42713;42.676;23.352;2023-11-18T03:38:15;10.98;;;2.05;;
56830;SDS011;42713;42.676;23.352;2023-11-18T03:40:44;5.47;;;2.20;;
56830;SDS011;42713;42.676;23.352;2023-11-18T03:43:10;6.40;;;2.15;;
56830;SDS011;42713;42.676;23.352;2023-11-18T03:45:38;6.43;;;2.15;;
56830;SDS011;42713;42.676;23.352;2023-11-18T03:48:07;4.35;;;2.10;;
56830;SDS011;42713;42.676;23.352;2023-11-18T03:50:33;4.72;;;2.00;;
56830;SDS011;42713;42.676;23.352;2023-11-18T03:53:01;5.50;;;2.42;;
56830;SDS011;42713;42.676;23.352;2023-11-18T03:55:28;4.60;;;2.10;;
56830;SDS011;42713;42.676;23.352;2023-11-18T03:57:54;4.38;;;2.00;;
56830;SDS011;42713;42.676;23.352;2023-11-18T04:00:20;5.68;;;2.45;;
56830;SDS011;42713;42.676;23.352;2023-11-18T04:02:46;6.03;;;2.30;;
56830;SDS011;42713;42.676;23.352;2023-11-18T04:05:12;8.07;;;2.42;;
56830;SDS011;42713;42.676;23.352;2023-11-18T04:07:38;5.53;;;2.35;;
56830;SDS011;42713;42.676;23.352;2023-11-18T04:10:06;5.80;;;2.50;;
56830;SDS011;42713;42.676;23.352;2023-11-18T04:12:35;6.32;;;2.30;;
56830;SDS011;42713;42.676;23.352;2023-11-18T04:15:00;6.15;;;2.45;;
56830;SDS011;42713;42.676;23.352;2023-11-18T04:17:26;5.15;;;2.25;;
56830;SDS011;42713;42.676;23.352;2023-11-18T04:19:53;6.95;;;2.50;;
56830;SDS011;42713;42.676;23.352;2023-11-18T04:22:21;6.07;;;2.58;;
56830;SDS011;42713;42.676;23.352;2023-11-18T04:24:47;4.95;;;2.20;;
56830;SDS011;42713;42.676;23.352;2023-11-18T04:27:12;8.57;;;2.50;;
56830;SDS011;42713;42.676;23.352;2023-11-18T04:29:38;4.53;;;2.25;;
56830;SDS011;42713;42.676;23.352;2023-11-18T04:32:05;5.60;;;2.25;;
56830;SDS011;42713;42.676;23.352;2023-11-18T04:34:35;5.60;;;2.33;;
56830;SDS011;42713;42.676;23.352;2023-11-18T04:37:01;6.07;;;2.38;;
56830;SDS011;42713;42.676;23.352;2023-11-18T04:39:27;4.68;;;2.30;;
56830;SDS011;42713;42.676;23.352;2023-11-18T04:41:55;5.53;;;2.38;;
56830;SDS011;42713;42.676;23.352;2023-11-18T04:44:21;5.43;;;2.20;;
56830;SDS011;42713;42.676;23.352;2023-11-18T04:46:47;5.45;;;2.25;;
56830;SDS011;42713;42.676;23.352;2023-11-18T04:49:12;5.30;;;2.20;;
56830;SDS011;42713;42.676;23.352;2023-11-18T04:51:38;5.57;;;2.30;;
56830;SDS011;42713;42.676;23.352;2023-11-18T04:54:03;4.95;;;2.30;;
56830;SDS011;42713;42.676;23.352;2023-11-18T04:56:29;7.93;;;2.40;;
56830;SDS011;42713;42.676;23.352;2023-11-18T04:58:54;5.32;;;2.20;;
56830;SDS011;42713;42.676;23.352;2023-11-18T05:01:20;4.88;;;2.03;;
56830;SDS011;42713;42.676;23.352;2023-11-18T05:03:45;5.65;;;2.20;;
56830;SDS011;42713;42.676;23.352;2023-11-18T05:06:10;6.22;;;2.40;;
56830;SDS011;42713;42.676;23.352;2023-11-18T05:08:36;5.55;;;1.88;;
56830;SDS011;42713;42.676;23.352;2023-11-18T05:11:01;4.28;;;1.90;;
56830;SDS011;42713;42.676;23.352;2023-11-18T05:13:29;5.47;;;2.33;;
56830;SDS011;42713;42.676;23.352;2023-11-18T05:15:55;5.55;;;2.05;;
56830;SDS011;42713;42.676;23.352;2023-11-18T05:18:20;7.15;;;1.98;;
56830;SDS011;42713;42.676;23.352;2023-11-18T05:20:46;3.53;;;1.77;;
56830;SDS011;42713;42.676;23.352;2023-11-18T05:23:12;4.03;;;1.80;;
56830;SDS011;42713;42.676;23.352;2023-11-18T05:25:41;4.88;;;1.90;;
56830;SDS011;42713;42.676;23.352;2023-11-18T05:28:11;4.25;;;1.90;;
56830;SDS011;42713;42.676;23.352;2023-11-18T05:30:37;4.22;;;1.73;;
56830;SDS011;42713;42.676;23.352;2023-11-18T05:33:06;4.55;;;1.95;;
56830;SDS011;42713;42.676;23.352;2023-11-18T05:35:31;3.47;;;1.70;;
56830;SDS011;42713;42.676;23.352;2023-11-18T05:37:58;4.38;;;1.70;;
56830;SDS011;42713;42.676;23.352;2023-11-18T05:40:23;5.10;;;1.80;;
56830;SDS011;42713;42.676;23.352;2023-11-18T05:42:50;3.92;;;1.80;;
56830;SDS011;42713;42.676;23.352;2023-11-18T05:45:18;4.55;;;2.13;;
56830;SDS011;42713;42.676;23.352;2023-11-18T05:48:01;3.80;;;1.50;;
56830;SDS011;42713;42.676;23.352;2023-11-18T05:50:28;5.00;;;1.90;;
56830;SDS011;42713;42.676;23.352;2023-11-18T05:52:54;4.22;;;1.60;;
56830;SDS011;42713;42.676;23.352;2023-11-18T05:55:20;4.45;;;1.40;;
56830;SDS011;42713;42.676;23.352;2023-11-18T05:57:46;4.22;;;1.67;;
56830;SDS011;42713;42.676;23.352;2023-11-18T06:00:13;4.82;;;1.70;;
56830;SDS011;42713;42.676;23.352;2023-11-18T06:02:41;4.03;;;1.55;;
56830;SDS011;42713;42.676;23.352;2023-11-18T06:05:07;2.88;;;1.23;;
56830;SDS011;42713;42.676;23.352;2023-11-18T06:07:33;3.33;;;1.30;;
56830;SDS011;42713;42.676;23.352;2023-11-18T06:09:59;2.78;;;1.13;;
56830;SDS011;42713;42.676;23.352;2023-11-18T06:12:25;2.08;;;1.10;;
56830;SDS011;42713;42.676;23.352;2023-11-18T06:14:51;5.70;;;1.10;;
56830;SDS011;42713;42.676;23.352;2023-11-18T06:17:17;2.03;;;0.90;;
56830;SDS011;42713;42.676;23.352;2023-11-18T06:19:44;3.65;;;1.35;;
56830;SDS011;42713;42.676;23.352;2023-11-18T06:22:09;2.35;;;1.15;;
56830;SDS011;42713;42.676;23.352;2023-11-18T06:24:35;2.50;;;1.00;;
56830;SDS011;42713;42.676;23.352;2023-11-18T06:27:01;2.53;;;1.10;;
56830;SDS011;42713;42.676;23.352;2023-11-18T06:29:26;3.47;;;1.25;;
56830;SDS011;42713;42.676;23.352;2023-11-18T06:31:54;2.38;;;1.10;;
56830;SDS011;42713;42.676;23.352;2023-11-18T06:34:20;3.45;;;1.30;;
56830;SDS011;42713;42.676;23.352;2023-11-18T06:36:46;4.13;;;1.08;;
56830;SDS011;42713;42.676;23.352;2023-11-18T06:39:11;2.97;;;1.40;;
56830;SDS011;42713;42.676;23.352;2023-11-18T06:41:38;2.28;;;1.10;;
56830;SDS011;42713;42.676;23.352;2023-11-18T06:44:13;4.22;;;1.45;;
56830;SDS011;42713;42.676;23.352;2023-11-18T06:46:43;5.10;;;1.40;;
56830;SDS011;42713;42.676;23.352;2023-11-18T06:49:09;1.40;;;0.82;;
56830;SDS011;42713;42.676;23.352;2023-11-18T06:51:40;1.40;;;0.77;;
56830;SDS011;42713;42.676;23.352;2023-11-18T06:54:06;2.08;;;1.10;;
56830;SDS011;42713;42.676;23.352;2023-11-18T06:56:35;2.25;;;0.95;;
56830;SDS011;42713;42.676;23.352;2023-11-18T06:59:07;2.92;;;1.00;;
56830;SDS011;42713;42.676;23.352;2023-11-18T07:01:36;1.65;;;0.88;;
56830;SDS011;42713;42.676;23.352;2023-11-18T07:04:03;1.00;;;0.80;;
56830;SDS011;42713;42.676;23.352;2023-11-18T07:06:30;2.72;;;1.00;;
56830;SDS011;42713;42.676;23.352;2023-11-18T07:08:56;1.83;;;0.90;;
56830;SDS011;42713;42.676;23.352;2023-11-18T07:11:25;2.50;;;1.00;;
56830;SDS011;42713;42.676;23.352;2023-11-18T07:13:51;2.45;;;1.00;;
56830;SDS011;42713;42.676;23.352;2023-11-18T07:16:22;1.63;;;0.87;;
56830;SDS011;42713;42.676;23.352;2023-11-18T07:18:50;2.65;;;0.95;;
56830;SDS011;42713;42.676;23.352;2023-11-18T07:21:16;6.53;;;0.98;;
56830;SDS011;42713;42.676;23.352;2023-11-18T07:23:42;3.72;;;0.90;;
56830;SDS011;42713;42.676;23.352;2023-11-18T07:26:08;2.50;;;1.00;;
56830;SDS011;42713;42.676;23.352;2023-11-18T07:28:35;2.85;;;1.00;;
56830;SDS011;42713;42.676;23.352;2023-11-18T07:31:01;1.73;;;0.88;;
56830;SDS011;42713;42.676;23.352;2023-11-18T07:33:30;2.15;;;1.10;;
56830;SDS011;42713;42.676;23.352;2023-11-18T07:35:59;3.33;;;1.20;;
56830;SDS011;42713;42.676;23.352;2023-11-18T07:38:24;3.78;;;1.00;;
56830;SDS011;42713;42.676;23.352;2023-11-18T07:40:52;1.95;;;0.98;;
56830;SDS011;42713;42.676;23.352;2023-11-18T07:43:21;1.33;;;0.82;;
56830;SDS011;42713;42.676;23.352;2023-11-18T07:45:47;2.67;;;0.90;;
56830;SDS011;42713;42.676;23.352;2023-11-18T07:48:20;2.50;;;0.98;;
56830;SDS011;42713;42.676;23.352;2023-11-18T07:50:46;1.63;;;0.82;;
56830;SDS011;42713;42.676;23.352;2023-11-18T07:53:21;1.88;;;0.80;;
56830;SDS011;42713;42.676;23.352;2023-11-18T07:59:52;2.55;;;1.00;;
56830;SDS011;42713;42.676;23.352;2023-11-18T08:02:21;3.40;;;1.00;;
56830;SDS011;42713;42.676;23.352;2023-11-18T08:05:01;1.45;;;0.80;;
56830;SDS011;42713;42.676;23.352;2023-11-18T08:07:41;3.28;;;1.33;;
56830;SDS011;42713;42.676;23.352;2023-11-18T08:10:16;4.22;;;1.08;;
56830;SDS011;42713;42.676;23.352;2023-11-18T08:12:44;2.38;;;1.10;;
56830;SDS011;42713;42.676;23.352;2023-11-18T08:15:56;5.85;;;1.10;;
56830;SDS011;42713;42.676;23.352;2023-11-18T08:18:26;2.75;;;1.20;;
56830;SDS011;42713;42.676;23.352;2023-11-18T08:21:11;2.67;;;1.13;;
56830;SDS011;42713;42.676;23.352;2023-11-18T08:27:26;1.95;;;1.15;;
56830;SDS011;42713;42.676;23.352;2023-11-18T08:30:04;2.33;;;1.00;;
56830;SDS011;42713;42.676;23.352;2023-11-18T08:32:55;2.00;;;1.00;;
56830;SDS011;42713;42.676;23.352;2023-11-18T08:35:39;2.47;;;1.00;;
56830;SDS011;42713;42.676;23.352;2023-11-18T08:38:30;2.80;;;1.02;;
56830;SDS011;42713;42.676;23.352;2023-11-18T08:40:58;2.33;;;1.38;;
56830;SDS011;42713;42.676;23.352;2023-11-18T08:43:36;3.13;;;1.30;;
56830;SDS011;42713;42.676;23.352;2023-11-18T08:46:12;1.85;;;0.90;;
56830;SDS011;42713;42.676;23.352;2023-11-18T08:48:50;1.95;;;0.90;;
56830;SDS011;42713;42.676;23.352;2023-11-18T08:54:02;2.88;;;1.05;;
56830;SDS011;42713;42.676;23.352;2023-11-18T08:56:50;3.03;;;1.20;;
56830;SDS011;42713;42.676;23.352;2023-11-18T08:59:28;3.95;;;1.02;;
56830;SDS011;42713;42.676;23.352;2023-11-18T09:02:18;3.17;;;1.08;;
56830;SDS011;42713;42.676;23.352;2023-11-18T09:05:05;3.45;;;1.30;;
56830;SDS011;42713;42.676;23.352;2023-11-18T09:07:47;1.60;;;1.00;;
56830;SDS011;42713;42.676;23.352;2023-11-18T09:10:15;5.57;;;2.27;;
56830;SDS011;42713;42.676;23.352;2023-11-18T09:12:45;0.80;;;0.77;;
56830;SDS011;42713;42.676;23.352;2023-11-18T09:15:20;1.52;;;1.00;;
56830;SDS011;42713;42.676;23.352;2023-11-18T09:21:45;2.45;;;1.00;;
56830;SDS011;42713;42.676;23.352;2023-11-18T09:31:23;2.38;;;1.13;;
56830;SDS011;42713;42.676;23.352;2023-11-18T09:34:07;3.40;;;1.15;;
56830;SDS011;42713;42.676;23.352;2023-11-18T09:36:41;6.78;;;1.30;;
56830;SDS011;42713;42.676;23.352;2023-11-18T09:39:24;3.80;;;1.20;;
56830;SDS011;42713;42.676;23.352;2023-11-18T09:42:12;4.60;;;1.10;;
56830;SDS011;42713;42.676;23.352;2023-11-18T09:45:05;1.92;;;1.00;;
56830;SDS011;42713;42.676;23.352;2023-11-18T09:48:01;2.85;;;1.00;;
56830;SDS011;42713;42.676;23.352;2023-11-18T09:50:34;5.25;;;1.23;;
56830;SDS011;42713;42.676;23.352;2023-11-18T09:53:05;2.28;;;1.00;;
56830;SDS011;42713;42.676;23.352;2023-11-18T09:55:44;4.47;;;1.40;;
56830;SDS011;42713;42.676;23.352;2023-11-18T09:58:17;2.15;;;1.20;;
56830;SDS011;42713;42.676;23.352;2023-11-18T10:00:53;3.17;;;1.38;;
56830;SDS011;42713;42.676;23.352;2023-11-18T10:03:30;2.03;;;1.10;;
56830;SDS011;42713;42.676;23.352;2023-11-18T10:06:02;1.75;;;1.08;;
56830;SDS011;42713;42.676;23.352;2023-11-18T10:08:31;2.60;;;1.20;;
56830;SDS011;42713;42.676;23.352;2023-11-18T10:11:50;3.30;;;1.35;;
56830;SDS011;42713;42.676;23.352;2023-11-18T10:14:23;3.25;;;1.20;;
56830;SDS011;42713;42.676;23.352;2023-11-18T10:16:49;2.97;;;1.40;;
56830;SDS011;42713;42.676;23.352;2023-11-18T10:19:19;4.13;;;1.30;;
56830;SDS011;42713;42.676;23.352;2023-11-18T10:24:56;3.75;;;1.38;;
56830;SDS011;42713;42.676;23.352;2023-11-18T10:27:25;2.67;;;1.10;;
56830;SDS011;42713;42.676;23.352;2023-11-18T10:29:57;2.90;;;1.10;;
56830;SDS011;42713;42.676;23.352;2023-11-18T10:33:01;3.97;;;1.20;;
56830;SDS011;42713;42.676;23.352;2023-11-18T10:35:39;3.08;;;1.17;;
56830;SDS011;42713;42.676;23.352;2023-11-18T10:38:19;2.40;;;1.10;;
56830;SDS011;42713;42.676;23.352;2023-11-18T10:40:47;5.05;;;1.17;;
56830;SDS011;42713;42.676;23.352;2023-11-18T10:43:31;3.17;;;1.27;;
56830;SDS011;42713;42.676;23.352;2023-11-18T10:49:03;3.67;;;1.25;;
56830;SDS011;42713;42.676;23.352;2023-11-18T10:51:38;4.70;;;1.48;;
56830;SDS011;42713;42.676;23.352;2023-11-18T10:54:08;4.28;;;1.17;;
56830;SDS011;42713;42.676;23.352;2023-11-18T10:56:52;4.47;;;1.23;;
56830;SDS011;42713;42.676;23.352;2023-11-18T10:59:57;1.80;;;1.00;;
56830;SDS011;42713;42.676;23.352;2023-11-18T11:02:39;3.17;;;1.35;;
56830;SDS011;42713;42.676;23.352;2023-11-18T11:05:06;3.60;;;1.20;;
56830;SDS011;42713;42.676;23.352;2023-11-18T11:07:33;3.00;;;1.30;;
56830;SDS011;42713;42.676;23.352;2023-11-18T11:10:01;2.63;;;1.10;;
56830;SDS011;42713;42.676;23.352;2023-11-18T11:12:33;2.67;;;1.15;;
56830;SDS011;42713;42.676;23.352;2023-11-18T11:15:07;4.15;;;1.45;;
56830;SDS011;42713;42.676;23.352;2023-11-18T11:17:39;2.75;;;1.17;;
56830;SDS011;42713;42.676;23.352;2023-11-18T11:20:13;2.72;;;1.23;;
56830;SDS011;42713;42.676;23.352;2023-11-18T11:23:26;3.50;;;1.35;;
56830;SDS011;42713;42.676;23.352;2023-11-18T11:28:21;4.10;;;1.25;;
56830;SDS011;42713;42.676;23.352;2023-11-18T11:33:46;2.67;;;1.08;;
56830;SDS011;42713;42.676;23.352;2023-11-18T11:39:47;3.72;;;1.42;;
56830;SDS011;42713;42.676;23.352;2023-11-18T11:42:56;3.47;;;1.30;;
56830;SDS011;42713;42.676;23.352;2023-11-18T11:45:32;3.83;;;1.40;;
56830;SDS011;42713;42.676;23.352;2023-11-18T11:48:12;3.60;;;1.20;;
56830;SDS011;42713;42.676;23.352;2023-11-18T11:56:46;3.22;;;1.35;;
56830;SDS011;42713;42.676;23.352;2023-11-18T11:59:15;4.82;;;1.30;;
56830;SDS011;42713;42.676;23.352;2023-11-18T12:01:42;3.90;;;1.25;;
56830;SDS011;42713;42.676;23.352;2023-11-18T12:04:12;4.50;;;1.60;;
56830;SDS011;42713;42.676;23.352;2023-11-18T12:06:46;6.38;;;1.50;;
56830;SDS011;42713;42.676;23.352;2023-11-18T12:09:15;5.10;;;1.50;;
56830;SDS011;42713;42.676;23.352;2023-11-18T12:11:48;5.97;;;1.55;;
56830;SDS011;42713;42.676;23.352;2023-11-18T12:14:14;3.38;;;1.45;;
56830;SDS011;42713;42.676;23.352;2023-11-18T12:17:02;3.38;;;1.40;;
56830;SDS011;42713;42.676;23.352;2023-11-18T12:19:34;4.18;;;1.40;;
56830;SDS011;42713;42.676;23.352;2023-11-18T12:22:10;2.70;;;1.30;;
56830;SDS011;42713;42.676;23.352;2023-11-18T12:24:43;4.10;;;1.33;;
56830;SDS011;42713;42.676;23.352;2023-11-18T12:41:17;10.23;;;1.35;;
56830;SDS011;42713;42.676;23.352;2023-11-18T12:46:54;4.03;;;1.40;;
56830;SDS011;42713;42.676;23.352;2023-11-18T12:49:39;4.53;;;1.40;;
56830;SDS011;42713;42.676;23.352;2023-11-18T12:52:08;7.20;;;1.58;;
56830;SDS011;42713;42.676;23.352;2023-11-18T12:54:35;2.92;;;1.20;;
56830;SDS011;42713;42.676;23.352;2023-11-18T12:57:11;4.78;;;1.60;;
56830;SDS011;42713;42.676;23.352;2023-11-18T13:02:09;3.30;;;1.30;;
56830;SDS011;42713;42.676;23.352;2023-11-18T13:11:12;2.65;;;1.33;;
56830;SDS011;42713;42.676;23.352;2023-11-18T13:13:56;3.75;;;1.70;;
56830;SDS011;42713;42.676;23.352;2023-11-18T13:19:52;3.03;;;1.30;;
56830;SDS011;42713;42.676;23.352;2023-11-18T13:22:25;5.72;;;1.83;;
56830;SDS011;42713;42.676;23.352;2023-11-18T13:25:12;4.05;;;1.70;;
56830;SDS011;42713;42.676;23.352;2023-11-18T13:28:39;4.68;;;1.80;;
56830;SDS011;42713;42.676;23.352;2023-11-18T13:31:05;3.78;;;1.55;;
56830;SDS011;42713;42.676;23.352;2023-11-18T13:33:50;7.38;;;1.85;;
56830;SDS011;42713;42.676;23.352;2023-11-18T13:36:21;3.85;;;1.92;;
56830;SDS011;42713;42.676;23.352;2023-11-18T13:38:47;6.38;;;2.60;;
56830;SDS011;42713;42.676;23.352;2023-11-18T13:41:30;5.10;;;2.03;;
56830;SDS011;42713;42.676;23.352;2023-11-18T13:44:01;5.13;;;2.00;;
56830;SDS011;42713;42.676;23.352;2023-11-18T13:46:30;5.03;;;1.95;;
56830;SDS011;42713;42.676;23.352;2023-11-18T13:48:56;4.25;;;1.90;;
56830;SDS011;42713;42.676;23.352;2023-11-18T13:51:25;4.63;;;1.67;;
56830;SDS011;42713;42.676;23.352;2023-11-18T13:53:51;4.72;;;1.70;;
56830;SDS011;42713;42.676;23.352;2023-11-18T13:56:21;4.20;;;1.88;;
56830;SDS011;42713;42.676;23.352;2023-11-18T13:58:48;4.85;;;1.95;;
56830;SDS011;42713;42.676;23.352;2023-11-18T14:01:20;6.10;;;2.10;;
56830;SDS011;42713;42.676;23.352;2023-11-18T14:04:02;5.63;;;1.90;;
56830;SDS011;42713;42.676;23.352;2023-11-18T14:06:30;6.38;;;2.53;;
56830;SDS011;42713;42.676;23.352;2023-11-18T14:09:16;4.13;;;1.80;;
56830;SDS011;42713;42.676;23.352;2023-11-18T14:11:54;4.80;;;1.98;;
56830;SDS011;42713;42.676;23.352;2023-11-18T14:16:59;5.15;;;2.28;;
56830;SDS011;42713;42.676;23.352;2023-11-18T14:19:36;6.78;;;2.10;;
56830;SDS011;42713;42.676;23.352;2023-11-18T14:22:21;4.80;;;2.00;;
56830;SDS011;42713;42.676;23.352;2023-11-18T14:24:53;6.13;;;2.10;;
56830;SDS011;42713;42.676;23.352;2023-11-18T14:27:40;6.22;;;2.35;;
56830;SDS011;42713;42.676;23.352;2023-11-18T14:30:13;5.72;;;2.63;;
56830;SDS011;42713;42.676;23.352;2023-11-18T14:32:54;4.65;;;2.10;;
56830;SDS011;42713;42.676;23.352;2023-11-18T14:35:55;6.65;;;2.70;;
56830;SDS011;42713;42.676;23.352;2023-11-18T14:38:23;8.75;;;2.65;;
56830;SDS011;42713;42.676;23.352;2023-11-18T14:40:49;5.63;;;2.58;;
56830;SDS011;42713;42.676;23.352;2023-11-18T14:43:15;6.25;;;2.92;;
56830;SDS011;42713;42.676;23.352;2023-11-18T14:45:48;5.53;;;2.50;;
56830;SDS011;42713;42.676;23.352;2023-11-18T14:48:16;8.10;;;2.72;;
56830;SDS011;42713;42.676;23.352;2023-11-18T14:56:36;5.50;;;2.33;;
56830;SDS011;42713;42.676;23.352;2023-11-18T15:00:04;6.32;;;2.42;;
56830;SDS011;42713;42.676;23.352;2023-11-18T15:02:49;6.60;;;2.25;;
56830;SDS011;42713;42.676;23.352;2023-11-18T15:05:35;7.47;;;2.88;;
56830;SDS011;42713;42.676;23.352;2023-11-18T15:08:49;6.97;;;2.97;;
56830;SDS011;42713;42.676;23.352;2023-11-18T15:11:20;6.43;;;2.58;;
56830;SDS011;42713;42.676;23.352;2023-11-18T15:13:53;5.57;;;2.33;;
56830;SDS011;42713;42.676;23.352;2023-11-18T15:16:24;7.05;;;2.47;;
56830;SDS011;42713;42.676;23.352;2023-11-18T15:19:03;6.05;;;2.67;;
56830;SDS011;42713;42.676;23.352;2023-11-18T15:21:29;6.55;;;2.60;;
56830;SDS011;42713;42.676;23.352;2023-11-18T15:23:55;5.38;;;2.47;;
56830;SDS011;42713;42.676;23.352;2023-11-18T15:26:29;6.00;;;2.47;;
56830;SDS011;42713;42.676;23.352;2023-11-18T15:28:56;7.13;;;2.70;;
56830;SDS011;42713;42.676;23.352;2023-11-18T15:31:24;6.57;;;2.40;;
56830;SDS011;42713;42.676;23.352;2023-11-18T15:33:49;7.95;;;2.50;;
56830;SDS011;42713;42.676;23.352;2023-11-18T15:36:40;6.07;;;2.75;;
56830;SDS011;42713;42.676;23.352;2023-11-18T15:39:11;5.97;;;2.60;;
56830;SDS011;42713;42.676;23.352;2023-11-18T15:41:39;6.18;;;2.63;;
56830;SDS011;42713;42.676;23.352;2023-11-18T15:44:12;7.07;;;2.90;;
56830;SDS011;42713;42.676;23.352;2023-11-18T15:47:03;6.93;;;2.58;;
56830;SDS011;42713;42.676;23.352;2023-11-18T15:50:02;6.78;;;2.47;;
56830;SDS011;42713;42.676;23.352;2023-11-18T15:52:42;6.43;;;2.53;;
56830;SDS011;42713;42.676;23.352;2023-11-18T15:59:08;8.32;;;2.90;;
56830;SDS011;42713;42.676;23.352;2023-11-18T16:02:48;6.93;;;2.60;;
56830;SDS011;42713;42.676;23.352;2023-11-18T16:06:17;7.82;;;3.00;;
56830;SDS011;42713;42.676;23.352;2023-11-18T16:08:55;6.60;;;2.83;;
56830;SDS011;42713;42.676;23.352;2023-11-18T16:12:02;9.15;;;2.92;;
56830;SDS011;42713;42.676;23.352;2023-11-18T16:14:57;9.60;;;2.97;;
56830;SDS011;42713;42.676;23.352;2023-11-18T16:17:23;8.05;;;3.10;;
56830;SDS011;42713;42.676;23.352;2023-11-18T16:19:49;11.77;;;2.97;;
56830;SDS011;42713;42.676;23.352;2023-11-18T16:22:14;6.57;;;2.45;;
56830;SDS011;42713;42.676;23.352;2023-11-18T16:24:40;6.45;;;2.60;;
56830;SDS011;42713;42.676;23.352;2023-11-18T16:27:17;6.90;;;2.70;;
56830;SDS011;42713;42.676;23.352;2023-11-18T16:29:57;7.80;;;2.70;;
56830;SDS011;42713;42.676;23.352;2023-11-18T16:32:35;6.93;;;2.55;;